createdAt,value
2022-11-29T00:01:36.051Z,91.79
2022-11-29T00:04:04.355Z,91.65
2022-11-29T00:06:33.910Z,91.88
2022-11-29T00:09:03.166Z,91.81
2022-11-29T00:11:53.437Z,91.83
2022-11-29T00:14:22.573Z,91.89
2022-11-29T00:16:54.783Z,92.00
2022-11-29T00:19:23.225Z,91.62
2022-11-29T00:21:50.864Z,91.81
2022-11-29T00:24:19.080Z,92.07
2022-11-29T00:26:48.844Z,91.95
2022-11-29T00:29:16.617Z,92.19
2022-11-29T00:31:45.184Z,91.98
2022-11-29T00:34:13.560Z,92.26
2022-11-29T00:36:42.132Z,92.23
2022-11-29T00:39:11.745Z,92.27
2022-11-29T00:41:41.054Z,92.16
2022-11-29T00:44:15.268Z,91.95
2022-11-29T00:46:46.199Z,91.74
2022-11-29T00:49:13.881Z,91.88
2022-11-29T00:51:41.961Z,92.46
2022-11-29T00:54:09.656Z,92.38
2022-11-29T00:56:37.502Z,92.43
2022-11-29T00:59:05.243Z,92.02
2022-11-29T01:01:34.620Z,91.89
2022-11-29T01:04:03.220Z,92.47
2022-11-29T01:06:31.642Z,92.32
2022-11-29T01:08:59.406Z,92.12
2022-11-29T01:11:28.908Z,92.06
2022-11-29T01:13:59.489Z,91.83
2022-11-29T01:16:28.543Z,91.73
2022-11-29T01:18:57.957Z,91.31
2022-11-29T01:21:26.438Z,91.40
2022-11-29T01:23:55.166Z,91.67
2022-11-29T01:26:25.665Z,91.27
2022-11-29T01:28:55.354Z,91.43
2022-11-29T01:31:25.990Z,91.52
2022-11-29T01:33:54.915Z,92.03
2022-11-29T01:36:24.836Z,91.78
2022-11-29T01:38:52.821Z,91.86
2022-11-29T01:41:22.881Z,91.95
2022-11-29T01:44:00.739Z,91.97
2022-11-29T01:46:30.969Z,92.35
2022-11-29T01:49:03.131Z,91.75
2022-11-29T01:51:33.843Z,92.27
2022-11-29T01:54:01.577Z,92.28
2022-11-29T01:56:31.193Z,92.08
2022-11-29T01:58:59.053Z,92.10
2022-11-29T02:01:27.285Z,91.99
2022-11-29T02:03:55.608Z,92.23
2022-11-29T02:06:23.591Z,92.22
2022-11-29T02:08:53.290Z,92.30
2022-11-29T02:11:47.421Z,91.87
2022-11-29T02:14:30.785Z,91.80
2022-11-29T02:17:05.216Z,92.04
2022-11-29T02:19:55.825Z,92.26
2022-11-29T02:22:29.983Z,92.10
2022-11-29T02:25:13.957Z,92.14
2022-11-29T02:28:31.936Z,91.86
2022-11-29T02:31:38.939Z,91.41
2022-11-29T02:34:33.331Z,91.52
2022-11-29T02:37:14.938Z,91.73
2022-11-29T02:40:14.729Z,91.96
2022-11-29T02:43:05.495Z,91.82
2022-11-29T02:45:56.834Z,91.69
2022-11-29T02:48:37.911Z,92.01
2022-11-29T02:51:12.414Z,91.79
2022-11-29T02:53:46.372Z,91.46
2022-11-29T02:56:23.256Z,91.76
2022-11-29T02:58:56.304Z,92.08
2022-11-29T03:01:31.951Z,91.77
2022-11-29T03:04:08.737Z,91.70
2022-11-29T03:06:44.084Z,91.85
2022-11-29T03:09:20.072Z,91.97
2022-11-29T03:11:54.017Z,91.69
2022-11-29T03:14:26.592Z,91.39
2022-11-29T03:17:05.404Z,91.78
2022-11-29T03:19:52.974Z,91.53
2022-11-29T03:22:30.886Z,91.60
2022-11-29T03:25:06.335Z,91.58
2022-11-29T03:27:43.622Z,91.62
2022-11-29T03:30:14.928Z,91.88
2022-11-29T03:32:51.580Z,92.16
2022-11-29T03:35:26.481Z,91.71
2022-11-29T03:38:03.506Z,91.83
2022-11-29T03:40:41.393Z,92.17
2022-11-29T03:43:15.187Z,92.21
2022-11-29T03:45:49.776Z,91.49
2022-11-29T03:48:22.841Z,91.26
2022-11-29T03:50:56.056Z,91.84
2022-11-29T03:53:38.208Z,91.11
2022-11-29T03:56:24.785Z,91.84
2022-11-29T03:59:02.809Z,91.69
2022-11-29T04:01:58.986Z,91.63
2022-11-29T04:05:04.809Z,92.10
2022-11-29T04:07:49.802Z,91.45
2022-11-29T04:10:35.662Z,91.96
2022-11-29T04:13:35.499Z,91.95
2022-11-29T04:16:22.232Z,91.91
2022-11-29T04:19:16.517Z,91.67
2022-11-29T04:22:18.932Z,91.67
2022-11-29T04:25:31.469Z,91.36
2022-11-29T04:28:16.729Z,91.31
2022-11-29T04:30:54.340Z,91.21
2022-11-29T04:33:48.447Z,91.20
2022-11-29T04:36:43.117Z,91.61
2022-11-29T04:39:36.894Z,91.68
2022-11-29T04:42:44.333Z,91.03
2022-11-29T04:45:36.801Z,91.40
2022-11-29T04:48:21.542Z,92.03
2022-11-29T04:51:00.515Z,91.63
2022-11-29T04:53:52.944Z,91.99
2022-11-29T04:56:30.145Z,91.83
2022-11-29T04:59:06.809Z,91.70
2022-11-29T05:01:47.766Z,91.95
2022-11-29T05:04:22.252Z,92.31
2022-11-29T05:07:03.394Z,92.58
2022-11-29T05:09:43.414Z,92.50
2022-11-29T05:12:20.737Z,92.50
2022-11-29T05:15:15.223Z,92.78
2022-11-29T05:17:54.013Z,92.72
2022-11-29T05:20:35.487Z,93.05
2022-11-29T05:23:24.985Z,92.53
2022-11-29T05:25:59.074Z,93.00
2022-11-29T05:28:34.409Z,92.93
2022-11-29T05:31:26.584Z,92.91
2022-11-29T05:34:34.737Z,93.22
2022-11-29T05:37:13.919Z,93.04
2022-11-29T05:39:58.780Z,93.35
2022-11-29T05:42:52.825Z,93.46
2022-11-29T05:45:28.478Z,93.19
2022-11-29T05:48:06.300Z,93.23
2022-11-29T05:50:38.998Z,93.03
2022-11-29T05:53:17.963Z,92.94
2022-11-29T05:55:55.774Z,93.05
2022-11-29T05:58:30.928Z,93.08
2022-11-29T06:01:04.829Z,92.87
2022-11-29T06:03:40.463Z,93.17
2022-11-29T06:06:17.604Z,93.34
2022-11-29T06:08:53.634Z,93.40
2022-11-29T06:11:29.152Z,92.88
2022-11-29T06:14:05.904Z,92.92
2022-11-29T06:16:53.458Z,93.40
2022-11-29T06:19:42.279Z,93.21
2022-11-29T06:22:21.631Z,93.45
2022-11-29T06:25:01.469Z,93.20
2022-11-29T06:27:44.287Z,93.36
2022-11-29T06:30:15.590Z,93.34
2022-11-29T06:32:50.817Z,93.39
2022-11-29T06:35:36.782Z,93.30
2022-11-29T06:38:12.446Z,93.36
2022-11-29T06:40:40.578Z,93.63
2022-11-29T06:43:09.049Z,93.59
2022-11-29T06:45:37.283Z,93.33
2022-11-29T06:48:07.860Z,93.47
2022-11-29T06:50:54.341Z,93.47
2022-11-29T06:53:32.199Z,93.39
2022-11-29T06:56:09.022Z,93.21
2022-11-29T06:58:47.191Z,93.28
2022-11-29T07:01:27.423Z,93.16
2022-11-29T07:04:18.657Z,92.91
2022-11-29T07:06:48.466Z,93.29
2022-11-29T07:09:19.910Z,93.06
2022-11-29T07:11:48.683Z,93.66
2022-11-29T07:14:17.389Z,93.23
2022-11-29T07:16:57.763Z,93.58
2022-11-29T07:19:38.751Z,93.33
2022-11-29T07:22:17.866Z,93.63
2022-11-29T07:24:57.972Z,93.58
2022-11-29T07:27:33.970Z,93.44
2022-11-29T07:30:11.961Z,93.13
2022-11-29T07:32:55.921Z,93.11
2022-11-29T07:35:36.656Z,93.51
2022-11-29T07:38:14.941Z,93.58
2022-11-29T07:40:52.828Z,93.34
2022-11-29T07:43:32.933Z,93.32
2022-11-29T07:46:01.096Z,93.14
2022-11-29T07:48:28.748Z,93.05
2022-11-29T07:50:57.124Z,93.59
2022-11-29T07:53:26.443Z,93.33
2022-11-29T07:55:54.576Z,93.18
2022-11-29T07:58:22.486Z,93.29
2022-11-29T08:00:50.203Z,93.22
2022-11-29T08:03:18.357Z,93.46
2022-11-29T08:05:47.740Z,93.35
2022-11-29T08:08:16.240Z,93.12
2022-11-29T08:10:45.586Z,93.17
2022-11-29T08:13:13.319Z,93.25
2022-11-29T08:15:45.446Z,93.28
2022-11-29T08:18:13.687Z,93.30
2022-11-29T08:20:41.796Z,92.98
2022-11-29T08:23:12.163Z,93.17
2022-11-29T08:25:40.210Z,92.91
2022-11-29T08:28:09.695Z,93.75
2022-11-29T08:30:37.525Z,93.41
2022-11-29T08:33:07.574Z,93.20
2022-11-29T08:35:35.902Z,93.42
2022-11-29T08:38:04.963Z,93.00
2022-11-29T08:40:32.685Z,92.69
2022-11-29T08:43:00.789Z,92.67
2022-11-29T08:45:30.356Z,92.43
2022-11-29T08:47:58.073Z,92.54
2022-11-29T08:50:26.084Z,92.01
2022-11-29T08:53:11.375Z,92.03
2022-11-29T08:55:42.659Z,92.58
2022-11-29T08:58:12.705Z,92.45
2022-11-29T09:00:43.464Z,92.17
2022-11-29T09:03:29.746Z,92.40
2022-11-29T09:05:57.532Z,92.84
2022-11-29T09:08:26.022Z,92.59
2022-11-29T09:10:53.674Z,92.17
2022-11-29T09:13:21.779Z,92.53
2022-11-29T09:15:50.889Z,92.71
2022-11-29T09:18:19.079Z,91.93
2022-11-29T09:20:47.094Z,91.70
2022-11-29T09:23:14.773Z,91.42
2022-11-29T09:25:48.681Z,91.22
2022-11-29T09:28:16.476Z,91.05
2022-11-29T09:30:44.143Z,91.68
2022-11-29T09:33:13.148Z,91.16
2022-11-29T09:35:41.133Z,91.24
2022-11-29T09:38:08.814Z,91.33
2022-11-29T09:40:41.944Z,91.16
2022-11-29T09:43:23.392Z,91.29
2022-11-29T09:45:56.885Z,90.81
2022-11-29T09:48:38.168Z,91.14
2022-11-29T09:51:19.030Z,90.91
2022-11-29T09:54:07.662Z,90.52
2022-11-29T09:56:39.590Z,91.04
2022-11-29T09:59:14.313Z,90.44
2022-11-29T10:01:46.604Z,90.59
2022-11-29T10:04:20.152Z,90.07
2022-11-29T10:06:55.853Z,90.23
2022-11-29T10:09:32.246Z,90.91
2022-11-29T10:12:11.853Z,91.14
2022-11-29T10:14:45.541Z,91.11
2022-11-29T10:17:23.996Z,91.32
2022-11-29T10:19:58.617Z,91.04
2022-11-29T10:22:37.314Z,90.13
2022-11-29T10:25:08.223Z,90.06
2022-11-29T10:27:40.380Z,90.02
2022-11-29T10:30:14.543Z,90.50
2022-11-29T10:32:44.938Z,90.27
2022-11-29T10:35:17.209Z,90.01
2022-11-29T10:38:01.556Z,89.73
2022-11-29T10:40:36.698Z,89.68
2022-11-29T10:43:05.053Z,89.41
2022-11-29T10:45:38.001Z,88.94
2022-11-29T10:48:09.003Z,89.11
2022-11-29T10:50:38.932Z,88.53
2022-11-29T10:53:09.588Z,88.05
2022-11-29T10:55:43.063Z,88.25
2022-11-29T10:58:14.855Z,88.19
2022-11-29T11:00:54.531Z,88.30
2022-11-29T11:03:44.188Z,88.69
2022-11-29T11:06:17.387Z,89.04
2022-11-29T11:08:48.723Z,88.71
2022-11-29T11:11:26.342Z,88.77
2022-11-29T11:14:02.475Z,88.68
2022-11-29T11:16:36.830Z,88.70
2022-11-29T11:19:28.356Z,88.74
2022-11-29T11:22:00.090Z,88.46
2022-11-29T11:24:30.328Z,88.42
2022-11-29T11:26:59.665Z,88.35
2022-11-29T11:29:36.716Z,87.80
2022-11-29T11:32:06.784Z,87.51
2022-11-29T11:34:36.339Z,87.18
2022-11-29T11:37:20.926Z,87.10
2022-11-29T11:39:50.245Z,86.75
2022-11-29T11:42:40.654Z,87.03
2022-11-29T11:45:28.296Z,86.90
2022-11-29T11:47:58.809Z,86.66
2022-11-29T11:50:30.255Z,86.27
2022-11-29T11:53:03.397Z,85.91
2022-11-29T11:55:35.287Z,86.00
2022-11-29T11:58:19.221Z,85.14
2022-11-29T12:01:06.054Z,85.31
2022-11-29T12:03:40.577Z,84.81
2022-11-29T12:06:28.109Z,84.71
2022-11-29T12:09:03.548Z,84.87
2022-11-29T12:11:46.725Z,85.04
2022-11-29T12:14:23.975Z,85.49
2022-11-29T12:16:59.595Z,84.79
2022-11-29T12:19:36.676Z,84.85
2022-11-29T12:22:09.710Z,84.79
2022-11-29T12:24:45.314Z,85.27
2022-11-29T12:27:16.101Z,84.89
2022-11-29T12:29:43.793Z,85.45
2022-11-29T12:32:29.161Z,85.25
2022-11-29T12:35:19.191Z,85.51
2022-11-29T12:37:57.140Z,85.54
2022-11-29T12:40:33.850Z,85.75
2022-11-29T12:43:10.735Z,85.43
2022-11-29T12:45:44.877Z,85.30
2022-11-29T12:48:23.959Z,85.49
2022-11-29T12:51:01.666Z,85.62
2022-11-29T12:53:45.414Z,85.40
2022-11-29T12:56:17.165Z,85.67
2022-11-29T12:59:01.883Z,85.62
2022-11-29T13:01:40.526Z,85.69
2022-11-29T13:04:23.210Z,85.27
2022-11-29T13:06:57.080Z,84.99
2022-11-29T13:09:54.536Z,85.18
2022-11-29T13:12:33.765Z,85.04
2022-11-29T13:15:06.316Z,85.10
2022-11-29T13:17:42.950Z,85.57
2022-11-29T13:20:23.039Z,85.48
2022-11-29T13:22:57.146Z,85.28
2022-11-29T13:25:29.855Z,85.35
2022-11-29T13:28:02.770Z,85.10
2022-11-29T13:30:30.597Z,84.95
2022-11-29T13:33:04.408Z,85.29
2022-11-29T13:35:39.880Z,85.14
2022-11-29T13:38:16.021Z,85.36
2022-11-29T13:40:54.852Z,84.96
2022-11-29T13:43:30.641Z,85.03
2022-11-29T13:46:07.482Z,85.00
2022-11-29T13:48:47.042Z,85.31
2022-11-29T13:51:27.692Z,85.29
2022-11-29T13:53:57.261Z,86.02
2022-11-29T13:56:29.613Z,85.34
2022-11-29T13:59:01.200Z,85.91
2022-11-29T14:01:29.587Z,85.58
2022-11-29T14:04:05.950Z,85.76
2022-11-29T14:06:35.221Z,85.70
2022-11-29T14:09:25.985Z,85.50
2022-11-29T14:12:04.334Z,85.80
2022-11-29T14:14:41.317Z,85.76
2022-11-29T14:17:34.895Z,85.73
2022-11-29T14:20:52.198Z,85.64
2022-11-29T14:23:39.325Z,86.05
2022-11-29T14:26:28.811Z,86.11
2022-11-29T14:28:58.461Z,86.43
2022-11-29T14:31:56.233Z,86.56
2022-11-29T14:34:36.134Z,86.44
2022-11-29T14:37:15.438Z,86.73
2022-11-29T14:39:47.185Z,86.71
2022-11-29T14:42:18.715Z,87.00
2022-11-29T14:44:52.280Z,86.92
2022-11-29T14:47:31.719Z,86.84
2022-11-29T14:50:03.874Z,87.39
2022-11-29T14:52:34.989Z,87.45
2022-11-29T14:55:10.244Z,87.07
2022-11-29T14:58:07.121Z,87.42
2022-11-29T15:00:52.236Z,87.37
2022-11-29T15:03:29.428Z,87.37
2022-11-29T15:06:00.982Z,87.14
2022-11-29T15:08:36.448Z,87.60
2022-11-29T15:11:12.561Z,87.58
2022-11-29T15:13:49.345Z,87.32
2022-11-29T15:16:34.253Z,87.89
2022-11-29T15:19:36.670Z,87.58
2022-11-29T15:22:15.366Z,87.96
2022-11-29T15:24:55.001Z,87.78
2022-11-29T15:27:23.457Z,87.87
2022-11-29T15:29:52.346Z,87.76
2022-11-29T15:32:26.521Z,87.74
2022-11-29T15:34:57.005Z,87.66
2022-11-29T15:37:39.751Z,87.60
2022-11-29T15:40:11.738Z,87.76
2022-11-29T15:42:41.739Z,87.26
2022-11-29T15:45:38.344Z,87.26
2022-11-29T15:48:19.883Z,87.53
2022-11-29T15:50:56.383Z,87.87
2022-11-29T15:53:30.051Z,87.74
2022-11-29T15:56:02.420Z,88.01
2022-11-29T15:58:34.649Z,88.09
2022-11-29T16:01:04.699Z,88.07
2022-11-29T16:03:35.811Z,88.18
2022-11-29T16:06:09.685Z,88.45
2022-11-29T16:08:41.769Z,88.15
2022-11-29T16:11:16.228Z,88.70
2022-11-29T16:14:01.749Z,89.09
2022-11-29T16:16:32.958Z,88.85
2022-11-29T16:19:10.603Z,88.68
2022-11-29T16:21:40.316Z,89.01
2022-11-29T16:24:20.409Z,88.61
2022-11-29T16:26:50.970Z,88.58
2022-11-29T16:29:24.584Z,88.76
2022-11-29T16:31:53.818Z,89.08
2022-11-29T16:34:27.497Z,89.11
2022-11-29T16:37:02.391Z,89.38
2022-11-29T16:39:31.391Z,89.80
2022-11-29T16:42:07.338Z,89.78
2022-11-29T16:45:03.356Z,89.74
2022-11-29T16:47:33.296Z,89.97
2022-11-29T16:50:14.476Z,89.37
2022-11-29T16:52:43.814Z,89.92
2022-11-29T16:55:11.709Z,89.66
2022-11-29T16:57:40.144Z,89.64
2022-11-29T17:00:24.380Z,89.69
2022-11-29T17:02:52.161Z,90.24
2022-11-29T17:05:19.825Z,89.94
2022-11-29T17:07:49.293Z,90.41
2022-11-29T17:10:19.788Z,89.78
2022-11-29T17:12:48.595Z,89.97
2022-11-29T17:15:16.628Z,89.45
2022-11-29T17:17:44.692Z,89.55
2022-11-29T17:20:13.648Z,89.78
2022-11-29T17:22:42.440Z,89.52
2022-11-29T17:25:12.142Z,89.39
2022-11-29T17:27:40.632Z,89.52
2022-11-29T17:30:11.199Z,89.44
2022-11-29T17:32:39.484Z,89.40
2022-11-29T17:35:07.722Z,89.10
2022-11-29T17:37:35.872Z,89.24
2022-11-29T17:40:03.545Z,89.07
2022-11-29T17:42:33.057Z,89.46
2022-11-29T17:45:00.732Z,89.31
2022-11-29T17:47:29.087Z,89.61
2022-11-29T17:49:58.017Z,89.54
2022-11-29T17:52:26.275Z,90.08
2022-11-29T17:54:54.011Z,90.13
2022-11-29T17:57:21.987Z,90.43
2022-11-29T17:59:50.982Z,90.14
2022-11-29T18:02:19.317Z,90.46
2022-11-29T18:04:47.009Z,90.74
2022-11-29T18:07:17.437Z,91.01
2022-11-29T18:09:46.684Z,90.52
2022-11-29T18:12:15.005Z,90.59
2022-11-29T18:14:42.630Z,90.70
2022-11-29T18:17:12.037Z,90.45
2022-11-29T18:19:39.738Z,90.45
2022-11-29T18:22:08.689Z,90.36
2022-11-29T18:24:36.356Z,90.26
2022-11-29T18:27:04.224Z,90.20
2022-11-29T18:29:38.258Z,90.27
2022-11-29T18:32:07.484Z,90.60
2022-11-29T18:34:36.483Z,90.14
2022-11-29T18:37:04.820Z,89.90
2022-11-29T18:39:32.790Z,89.41
2022-11-29T18:42:00.476Z,89.60
2022-11-29T18:44:30.102Z,89.82
2022-11-29T18:46:58.463Z,89.94
2022-11-29T18:49:26.142Z,89.74
2022-11-29T18:51:55.453Z,89.55
2022-11-29T18:54:23.124Z,89.47
2022-11-29T18:56:51.341Z,89.47
2022-11-29T18:59:19.011Z,89.60
2022-11-29T19:01:48.756Z,89.47
2022-11-29T19:04:18.669Z,89.56
2022-11-29T19:06:47.137Z,89.65
2022-11-29T19:09:18.400Z,89.22
2022-11-29T19:11:46.470Z,89.27
2022-11-29T19:14:14.180Z,89.19
2022-11-29T19:16:44.465Z,88.99
2022-11-29T19:19:13.254Z,89.59
2022-11-29T19:21:41.565Z,89.36
2022-11-29T19:24:15.191Z,90.09
2022-11-29T19:26:45.856Z,89.65
2022-11-29T19:29:14.304Z,90.00
2022-11-29T19:31:42.437Z,89.72
2022-11-29T19:34:10.240Z,89.77
2022-11-29T19:36:42.616Z,89.63
2022-11-29T19:39:12.227Z,90.06
2022-11-29T19:41:39.922Z,90.34
2022-11-29T19:44:10.259Z,90.01
2022-11-29T19:46:40.987Z,89.81
2022-11-29T19:49:10.263Z,89.83
2022-11-29T19:51:37.996Z,90.01
2022-11-29T19:54:08.423Z,89.92
2022-11-29T19:56:36.166Z,89.63
2022-11-29T19:59:04.680Z,89.73
2022-11-29T20:01:40.744Z,89.14
2022-11-29T20:04:10.922Z,89.43
2022-11-29T20:06:39.053Z,89.99
2022-11-29T20:09:07.454Z,89.80
2022-11-29T20:11:35.315Z,90.25
2022-11-29T20:14:05.543Z,90.25
2022-11-29T20:16:36.749Z,89.88
2022-11-29T20:19:10.072Z,89.91
2022-11-29T20:21:43.446Z,89.58
2022-11-29T20:24:12.366Z,90.17
2022-11-29T20:26:41.537Z,90.49
2022-11-29T20:29:10.183Z,90.17
2022-11-29T20:31:47.754Z,90.30
2022-11-29T20:34:17.722Z,90.51
2022-11-29T20:37:00.635Z,90.60
2022-11-29T20:39:36.121Z,90.66
2022-11-29T20:42:28.358Z,90.97
2022-11-29T20:44:58.049Z,90.80
2022-11-29T20:47:29.465Z,90.49
2022-11-29T20:49:57.669Z,90.13
2022-11-29T20:52:35.600Z,89.58
2022-11-29T20:55:04.463Z,89.87
2022-11-29T20:57:32.089Z,89.87
2022-11-29T21:00:01.069Z,89.69
2022-11-29T21:02:30.079Z,89.95
2022-11-29T21:04:58.174Z,90.26
2022-11-29T21:07:25.846Z,90.21
2022-11-29T21:09:56.669Z,90.08
2022-11-29T21:12:29.517Z,90.16
2022-11-29T21:14:57.985Z,90.20
2022-11-29T21:17:33.153Z,90.35
2022-11-29T21:20:03.503Z,90.06
2022-11-29T21:22:42.130Z,89.97
2022-11-29T21:25:21.102Z,89.56
2022-11-29T21:27:49.356Z,89.13
2022-11-29T21:30:20.553Z,89.40
2022-11-29T21:32:49.008Z,89.65
2022-11-29T21:35:19.053Z,90.06
2022-11-29T21:37:47.071Z,89.67
2022-11-29T21:40:16.088Z,90.83
2022-11-29T21:42:43.741Z,91.98
2022-11-29T21:45:15.544Z,92.06
2022-11-29T21:47:44.347Z,91.56
2022-11-29T21:50:13.537Z,91.81
2022-11-29T21:52:44.184Z,91.04
2022-11-29T21:55:12.205Z,90.95
2022-11-29T21:57:40.091Z,91.02
2022-11-29T22:00:09.145Z,91.01
2022-11-29T22:02:37.255Z,90.94
2022-11-29T22:05:05.542Z,91.82
2022-11-29T22:07:33.192Z,92.14
2022-11-29T22:10:11.652Z,91.73
2022-11-29T22:12:49.376Z,91.04
2022-11-29T22:15:24.577Z,90.93
2022-11-29T22:17:53.239Z,90.83
2022-11-29T22:20:21.525Z,90.95
2022-11-29T22:22:49.295Z,91.30
2022-11-29T22:25:18.655Z,91.18
2022-11-29T22:27:46.295Z,91.40
2022-11-29T22:30:14.261Z,91.60
2022-11-29T22:32:41.893Z,91.79
2022-11-29T22:35:10.185Z,91.13
2022-11-29T22:37:37.833Z,90.64
2022-11-29T22:40:07.688Z,90.68
2022-11-29T22:42:36.636Z,90.90
2022-11-29T22:45:05.367Z,90.61
2022-11-29T22:47:33.003Z,90.87
2022-11-29T22:50:00.661Z,90.81
2022-11-29T22:52:29.679Z,90.50
2022-11-29T22:55:02.915Z,90.74
2022-11-29T22:57:32.974Z,91.24
2022-11-29T23:00:01.978Z,91.37
2022-11-29T23:02:29.999Z,91.71
2022-11-29T23:04:57.652Z,92.22
2022-11-29T23:07:25.789Z,92.42
2022-11-29T23:09:55.026Z,92.52
2022-11-29T23:12:23.211Z,92.71
2022-11-29T23:14:56.072Z,92.98
2022-11-29T23:17:26.065Z,93.04
2022-11-29T23:19:53.727Z,93.00
2022-11-29T23:22:22.118Z,92.85
2022-11-29T23:24:49.832Z,92.83
2022-11-29T23:27:17.828Z,93.02
2022-11-29T23:29:45.516Z,92.97
2022-11-29T23:32:13.599Z,92.80
2022-11-29T23:34:43.573Z,92.86
2022-11-29T23:37:11.703Z,92.96
2022-11-29T23:39:39.337Z,92.91
2022-11-29T23:42:07.297Z,92.74
2022-11-29T23:44:35.095Z,92.84
2022-11-29T23:47:03.046Z,92.69
2022-11-29T23:49:30.844Z,92.40
2022-11-29T23:52:00.198Z,92.35
2022-11-29T23:54:27.975Z,92.41
2022-11-29T23:56:56.393Z,92.35
2022-11-29T23:59:24.042Z,91.60
